Time;durP1;ratioP1;P1;durP2;ratioP2;P2;SDS_P1;SDS_P2;PMS_P1;PMS_P2;Temp;Humidity;BMP_temperature;BMP_pressure;BME280_temperature;BME280_humidity;BME280_pressure;Samples;Min_cycle;Max_cycle;Signal;HPM_P1;HPM_P2
2021/11/16 00:00:52;;;;;;;25.13;10.23;;;;;;;;;;4878478;29;20096;-67
2021/11/16 00:03:18;;;;;;;17.38;9.30;;;;;;;;;;4878637;29;20029;-67
2021/11/16 00:05:44;;;;;;;17.83;9.50;;;;;;;;;;4878387;29;20051;-67
2021/11/16 00:08:10;;;;;;;19.98;9.15;;;;;;;;;;4878694;29;20089;-65
2021/11/16 00:10:37;;;;;;;21.75;10.05;;;;;;;;;;4878357;29;20024;-66
2021/11/16 00:13:04;;;;;;;23.98;9.73;;;;;;;;;;4878518;29;20481;-65
2021/11/16 00:15:30;;;;;;;24.38;10.40;;;;;;;;;;4878198;29;20021;-66
2021/11/16 00:17:56;;;;;;;27.35;10.50;;;;;;;;;;4878298;29;20389;-66
2021/11/16 00:20:23;;;;;;;27.23;10.80;;;;;;;;;;4878692;29;20021;-66
2021/11/16 00:22:49;;;;;;;21.63;9.48;;;;;;;;;;4877992;29;20041;-66
2021/11/16 00:25:32;;;;;;;19.55;9.73;;;;;;;;;;4878731;29;20049;-65
2021/11/16 00:27:58;;;;;;;22.42;10.85;;;;;;;;;;4877976;29;20132;-67
2021/11/16 00:30:24;;;;;;;21.70;10.15;;;;;;;;;;4878212;29;20104;-68
2021/11/16 00:32:50;;;;;;;19.80;9.65;;;;;;;;;;4878049;29;20462;-65
2021/11/16 00:35:16;;;;;;;19.52;9.52;;;;;;;;;;4878411;29;20040;-66
2021/11/16 00:37:43;;;;;;;20.65;9.48;;;;;;;;;;4878019;29;20033;-67
2021/11/16 00:40:11;;;;;;;25.75;10.10;;;;;;;;;;4877653;29;20080;-65
2021/11/16 00:42:37;;;;;;;31.90;11.35;;;;;;;;;;4878166;29;20045;-63
2021/11/16 00:45:04;;;;;;;32.78;10.98;;;;;;;;;;4878276;29;20049;-64
2021/11/16 00:47:30;;;;;;;26.88;10.18;;;;;;;;;;4877838;29;20068;-64
2021/11/16 00:49:56;;;;;;;33.65;11.05;;;;;;;;;;4877965;29;20064;-64
2021/11/16 00:52:22;;;;;;;27.13;10.82;;;;;;;;;;4877794;29;20092;-64
2021/11/16 00:54:48;;;;;;;24.67;10.13;;;;;;;;;;4876676;29;20033;-64
2021/11/16 00:57:14;;;;;;;26.92;10.15;;;;;;;;;;4877858;29;20100;-64
2021/11/16 00:59:40;;;;;;;29.92;12.35;;;;;;;;;;4877781;29;20083;-64
2021/11/16 01:02:06;;;;;;;22.83;10.52;;;;;;;;;;4877571;29;20492;-66
2021/11/16 01:04:32;;;;;;;32.00;10.60;;;;;;;;;;4877841;29;20033;-67
2021/11/16 01:06:58;;;;;;;32.75;10.75;;;;;;;;;;4876751;29;20120;-65
2021/11/16 01:09:24;;;;;;;31.20;10.82;;;;;;;;;;4878239;29;20471;-65
2021/11/16 01:11:51;;;;;;;22.77;10.95;;;;;;;;;;4877996;29;20887;-66
2021/11/16 01:14:17;;;;;;;28.40;11.43;;;;;;;;;;4878210;29;20152;-66
2021/11/16 01:16:43;;;;;;;33.80;12.02;;;;;;;;;;4878116;29;20037;-67
2021/11/16 01:19:10;;;;;;;28.15;11.25;;;;;;;;;;4878090;29;20108;-63
2021/11/16 01:21:36;;;;;;;23.40;11.48;;;;;;;;;;4878284;29;20037;-64
2021/11/16 01:24:04;;;;;;;25.58;11.45;;;;;;;;;;4881780;29;20716;-64
2021/11/16 01:26:30;;;;;;;27.58;11.63;;;;;;;;;;4880136;29;20036;-63
2021/11/16 01:28:58;;;;;;;38.35;10.95;;;;;;;;;;4881272;29;20520;-65
2021/11/16 01:31:24;;;;;;;21.85;10.65;;;;;;;;;;4880399;29;20025;-64
2021/11/16 01:33:56;;;;;;;25.95;11.45;;;;;;;;;;4881272;29;20047;-63
2021/11/16 01:36:22;;;;;;;23.30;10.70;;;;;;;;;;4879626;29;20389;-64
2021/11/16 01:38:50;;;;;;;24.67;11.50;;;;;;;;;;4881014;29;20948;-66
2021/11/16 01:41:16;;;;;;;29.25;12.02;;;;;;;;;;4880663;29;20124;-67
2021/11/16 01:43:43;;;;;;;31.38;12.80;;;;;;;;;;4880868;29;20066;-66
2021/11/16 01:46:13;;;;;;;33.65;12.25;;;;;;;;;;4879811;29;20116;-65
2021/11/16 01:48:39;;;;;;;24.75;11.50;;;;;;;;;;4880059;29;20029;-67
2021/11/16 01:51:05;;;;;;;23.45;11.18;;;;;;;;;;4881171;29;20064;-66
2021/11/16 01:53:32;;;;;;;33.20;13.23;;;;;;;;;;4881036;29;20112;-67
2021/11/16 01:55:58;;;;;;;28.55;11.95;;;;;;;;;;4880907;29;20100;-65
2021/11/16 01:58:24;;;;;;;26.00;11.40;;;;;;;;;;4880910;29;20131;-67
2021/11/16 02:00:50;;;;;;;25.80;11.05;;;;;;;;;;4880662;29;20491;-66
2021/11/16 02:03:17;;;;;;;28.67;12.52;;;;;;;;;;4880758;29;20041;-66
2021/11/16 02:05:44;;;;;;;33.97;12.20;;;;;;;;;;4880480;29;20456;-67
2021/11/16 02:08:11;;;;;;;29.98;11.88;;;;;;;;;;4880335;29;20536;-66
2021/11/16 02:10:37;;;;;;;25.48;12.75;;;;;;;;;;4880929;29;20036;-66
2021/11/16 02:13:03;;;;;;;22.55;11.45;;;;;;;;;;4880533;29;20419;-66
2021/11/16 02:15:29;;;;;;;23.80;11.88;;;;;;;;;;4879226;29;20451;-66
2021/11/16 02:17:56;;;;;;;29.63;12.40;;;;;;;;;;4880640;29;20039;-67
2021/11/16 02:20:22;;;;;;;30.45;12.00;;;;;;;;;;4880150;29;20032;-66
2021/11/16 02:22:49;;;;;;;27.92;12.25;;;;;;;;;;4878395;29;20061;-66
2021/11/16 02:25:15;;;;;;;26.92;11.70;;;;;;;;;;4880105;29;20044;-67
2021/11/16 02:27:41;;;;;;;26.27;12.00;;;;;;;;;;4879816;29;20517;-67
2021/11/16 02:30:08;;;;;;;27.77;12.73;;;;;;;;;;4879891;29;20041;-65
2021/11/16 02:32:34;;;;;;;27.25;11.65;;;;;;;;;;4879441;29;20153;-67
2021/11/16 02:35:00;;;;;;;31.92;12.90;;;;;;;;;;4880255;29;20053;-65
2021/11/16 02:37:33;;;;;;;30.33;13.50;;;;;;;;;;4880193;29;20040;-65
2021/11/16 02:40:00;;;;;;;26.67;11.75;;;;;;;;;;4880263;29;20024;-67
2021/11/16 02:42:27;;;;;;;23.20;12.13;;;;;;;;;;4880221;29;20045;-67
2021/11/16 02:44:53;;;;;;;29.95;12.35;;;;;;;;;;4880350;29;20029;-66
2021/11/16 02:47:19;;;;;;;24.63;12.25;;;;;;;;;;4880572;29;20092;-67
2021/11/16 02:49:45;;;;;;;31.55;12.85;;;;;;;;;;4880111;29;20035;-66
2021/11/16 02:52:12;;;;;;;30.80;12.63;;;;;;;;;;4879822;29;20033;-66
2021/11/16 02:54:39;;;;;;;31.50;12.70;;;;;;;;;;4879313;29;20677;-66
2021/11/16 02:57:09;;;;;;;26.50;12.90;;;;;;;;;;4879614;29;20473;-67
2021/11/16 02:59:35;;;;;;;25.88;12.60;;;;;;;;;;4879159;29;20033;-66
2021/11/16 03:02:01;;;;;;;24.25;11.88;;;;;;;;;;4878991;29;20051;-67
2021/11/16 03:04:27;;;;;;;25.88;12.65;;;;;;;;;;4879427;29;20029;-67
2021/11/16 03:06:54;;;;;;;22.52;12.20;;;;;;;;;;4879187;29;20040;-66
2021/11/16 03:09:20;;;;;;;24.83;11.25;;;;;;;;;;4879590;29;20041;-67
2021/11/16 03:11:48;;;;;;;28.73;13.65;;;;;;;;;;4879652;29;20033;-66
2021/11/16 03:14:14;;;;;;;27.98;13.07;;;;;;;;;;4879282;29;20025;-65
2021/11/16 03:16:40;;;;;;;28.23;13.07;;;;;;;;;;4878997;29;20509;-66
2021/11/16 03:19:06;;;;;;;31.35;12.52;;;;;;;;;;4879287;29;20021;-64
2021/11/16 03:21:33;;;;;;;29.02;12.73;;;;;;;;;;4879023;29;20029;-66
2021/11/16 03:23:59;;;;;;;25.30;12.95;;;;;;;;;;4878856;29;20033;-67
2021/11/16 03:26:27;;;;;;;25.13;13.25;;;;;;;;;;4879001;29;20427;-66
2021/11/16 03:28:53;;;;;;;25.48;12.95;;;;;;;;;;4878680;29;20045;-65
2021/11/16 03:33:53;;;;;;;30.52;13.65;;;;;;;;;;4879192;29;20039;-66
2021/11/16 03:36:20;;;;;;;25.15;12.70;;;;;;;;;;4878744;29;20119;-67
2021/11/16 03:38:47;;;;;;;33.35;17.65;;;;;;;;;;4878624;29;20452;-69
2021/11/16 03:41:13;;;;;;;36.20;16.83;;;;;;;;;;4878458;29;20081;-68
2021/11/16 03:43:40;;;;;;;36.08;16.00;;;;;;;;;;4878586;29;20033;-65
2021/11/16 03:46:06;;;;;;;33.80;15.23;;;;;;;;;;4877926;29;20040;-66
2021/11/16 03:48:33;;;;;;;42.92;15.68;;;;;;;;;;4878309;29;20396;-65
2021/11/16 03:50:59;;;;;;;56.83;15.98;;;;;;;;;;4878554;29;20466;-67
2021/11/16 03:53:25;;;;;;;43.10;14.68;;;;;;;;;;4878539;29;20466;-66
2021/11/16 03:55:51;;;;;;;39.97;15.60;;;;;;;;;;4878658;29;20040;-67
2021/11/16 03:58:19;;;;;;;36.47;15.68;;;;;;;;;;4878519;29;20025;-66
2021/11/16 04:00:52;;;;;;;31.13;14.50;;;;;;;;;;4877896;29;20370;-68
2021/11/16 04:03:19;;;;;;;33.38;15.82;;;;;;;;;;4878107;29;20079;-67
2021/11/16 04:05:45;;;;;;;35.70;15.27;;;;;;;;;;4877843;29;20024;-65
2021/11/16 04:08:11;;;;;;;32.20;15.55;;;;;;;;;;4877966;29;20033;-66
2021/11/16 04:10:37;;;;;;;32.70;14.38;;;;;;;;;;4876733;29;20076;-66
2021/11/16 04:13:04;;;;;;;33.20;14.82;;;;;;;;;;4878424;29;20037;-64
2021/11/16 04:15:31;;;;;;;36.15;15.23;;;;;;;;;;4876390;29;20410;-66
2021/11/16 04:17:57;;;;;;;29.58;13.85;;;;;;;;;;4878351;29;20033;-66
2021/11/16 04:20:28;;;;;;;39.95;14.73;;;;;;;;;;4878246;29;20017;-65
2021/11/16 04:22:56;;;;;;;35.05;15.23;;;;;;;;;;4877871;29;20041;-65
2021/11/16 04:25:22;;;;;;;37.80;14.93;;;;;;;;;;4878005;29;20477;-65
2021/11/16 04:27:48;;;;;;;28.73;14.40;;;;;;;;;;4878341;29;20116;-65
2021/11/16 04:30:16;;;;;;;33.70;14.82;;;;;;;;;;4877718;29;20081;-67
2021/11/16 04:32:42;;;;;;;43.42;14.43;;;;;;;;;;4878022;29;20029;-67
2021/11/16 04:35:09;;;;;;;33.80;14.77;;;;;;;;;;4877973;29;20029;-68
2021/11/16 04:37:36;;;;;;;33.55;14.85;;;;;;;;;;4877895;29;20025;-65
2021/11/16 04:40:03;;;;;;;32.35;14.95;;;;;;;;;;4877034;29;20104;-66
2021/11/16 04:42:29;;;;;;;31.02;14.10;;;;;;;;;;4877350;29;20032;-67
2021/11/16 04:44:55;;;;;;;32.05;14.13;;;;;;;;;;4878148;29;20108;-65
2021/11/16 04:47:28;;;;;;;30.75;15.15;;;;;;;;;;4877848;29;20076;-66
2021/11/16 04:49:59;;;;;;;31.92;14.50;;;;;;;;;;4877891;29;20033;-66
2021/11/16 04:53:09;;;;;;;28.75;14.45;;;;;;;;;;4877462;29;20081;-67
2021/11/16 04:55:32;;;;;;;28.75;15.13;;;;;;;;;;4878286;29;20052;-65
2021/11/16 05:03:39;;;;;;;31.75;13.88;;;;;;;;;;4881654;29;20096;-67
2021/11/16 05:06:05;;;;;;;34.40;14.35;;;;;;;;;;4881418;29;20370;-65
2021/11/16 05:08:31;;;;;;;27.05;13.30;;;;;;;;;;4881340;29;20041;-66
2021/11/16 05:10:57;;;;;;;24.45;12.50;;;;;;;;;;4881367;29;20037;-66
2021/11/16 05:13:23;;;;;;;29.10;12.93;;;;;;;;;;4881510;29;20037;-65
2021/11/16 05:15:50;;;;;;;23.92;12.70;;;;;;;;;;4880679;29;20405;-66
2021/11/16 05:18:16;;;;;;;31.30;12.60;;;;;;;;;;4880149;29;20060;-66
2021/11/16 05:20:42;;;;;;;29.13;12.63;;;;;;;;;;4881584;29;20433;-66
2021/11/16 05:23:10;;;;;;;26.00;11.85;;;;;;;;;;4881237;29;20028;-66
2021/11/16 05:25:36;;;;;;;27.20;13.40;;;;;;;;;;4881085;29;20112;-64
2021/11/16 05:28:05;;;;;;;25.02;12.45;;;;;;;;;;4881214;29;20610;-65
2021/11/16 05:30:32;;;;;;;24.42;12.40;;;;;;;;;;4880831;29;20091;-68
2021/11/16 05:32:58;;;;;;;25.48;12.15;;;;;;;;;;4880930;29;20025;-67
2021/11/16 05:35:24;;;;;;;23.58;12.55;;;;;;;;;;4879745;29;20077;-64
2021/11/16 05:37:50;;;;;;;22.85;11.75;;;;;;;;;;4880412;29;20104;-66
2021/11/16 05:40:16;;;;;;;34.03;11.93;;;;;;;;;;4880889;29;20117;-66
2021/11/16 05:42:43;;;;;;;23.08;12.18;;;;;;;;;;4880622;29;20051;-65
2021/11/16 05:45:09;;;;;;;23.83;11.43;;;;;;;;;;4880592;29;20037;-67
2021/11/16 05:47:38;;;;;;;24.10;11.77;;;;;;;;;;4880698;29;20040;-65
2021/11/16 05:50:05;;;;;;;23.65;12.13;;;;;;;;;;4880164;29;20077;-65
2021/11/16 05:52:31;;;;;;;26.30;11.20;;;;;;;;;;4880792;29;20068;-67
2021/11/16 05:54:57;;;;;;;25.58;11.13;;;;;;;;;;4879129;29;20069;-68
2021/11/16 05:57:23;;;;;;;26.60;12.57;;;;;;;;;;4880406;29;20037;-67
2021/11/16 05:59:49;;;;;;;70.05;17.40;;;;;;;;;;4879353;29;20488;-67
2021/11/16 06:02:15;;;;;;;37.03;13.50;;;;;;;;;;4880348;29;20405;-67
2021/11/16 06:04:43;;;;;;;33.95;13.63;;;;;;;;;;4880504;29;20512;-68
2021/11/16 06:07:09;;;;;;;42.20;14.07;;;;;;;;;;4879394;29;20080;-67
2021/11/16 06:09:35;;;;;;;37.58;14.23;;;;;;;;;;4880481;29;20045;-67
2021/11/16 06:12:02;;;;;;;36.03;14.60;;;;;;;;;;4880156;29;20033;-67
2021/11/16 06:14:29;;;;;;;38.22;14.65;;;;;;;;;;4879846;29;20021;-67
2021/11/16 06:16:55;;;;;;;31.63;15.05;;;;;;;;;;4880007;29;20426;-68
2021/11/16 06:19:25;;;;;;;32.92;14.30;;;;;;;;;;4879851;29;20365;-67
2021/11/16 06:21:55;;;;;;;33.55;15.45;;;;;;;;;;4878169;29;20096;-67
2021/11/16 06:24:23;;;;;;;33.22;15.52;;;;;;;;;;4879522;29;20040;-67
2021/11/16 06:26:49;;;;;;;31.08;15.52;;;;;;;;;;4880071;29;20505;-67
2021/11/16 06:29:15;;;;;;;29.35;15.20;;;;;;;;;;4879633;29;20049;-67
2021/11/16 06:31:41;;;;;;;29.25;14.50;;;;;;;;;;4878636;29;20041;-68
2021/11/16 06:34:09;;;;;;;30.35;14.48;;;;;;;;;;4878537;29;20040;-68
2021/11/16 06:36:36;;;;;;;31.55;14.80;;;;;;;;;;4879497;29;20033;-68
2021/11/16 06:39:08;;;;;;;31.08;14.63;;;;;;;;;;4878970;29;20057;-66
2021/11/16 06:41:34;;;;;;;29.15;14.27;;;;;;;;;;4878594;29;20632;-67
2021/11/16 06:44:00;;;;;;;30.25;15.30;;;;;;;;;;4879574;29;20039;-67
2021/11/16 06:46:30;;;;;;;34.60;14.07;;;;;;;;;;4879361;29;20107;-67
2021/11/16 06:48:56;;;;;;;30.25;13.95;;;;;;;;;;4879235;29;20473;-68
2021/11/16 06:51:22;;;;;;;32.92;14.88;;;;;;;;;;4879546;29;20044;-67
2021/11/16 06:53:48;;;;;;;37.67;14.57;;;;;;;;;;4879542;29;20025;-67
2021/11/16 06:56:14;;;;;;;24.63;13.23;;;;;;;;;;4879378;29;20064;-67
2021/11/16 06:58:40;;;;;;;29.05;14.48;;;;;;;;;;4879884;29;20513;-68
2021/11/16 07:01:06;;;;;;;37.25;13.90;;;;;;;;;;4879232;29;20045;-67
2021/11/16 07:03:33;;;;;;;40.60;15.55;;;;;;;;;;4879226;29;20040;-67
2021/11/16 07:06:01;;;;;;;30.00;14.32;;;;;;;;;;4879428;29;20537;-67
2021/11/16 07:08:35;;;;;;;28.30;13.52;;;;;;;;;;4878384;29;20057;-67
2021/11/16 07:11:12;;;;;;;32.22;13.90;;;;;;;;;;4878668;29;20028;-67
2021/11/16 07:13:53;;;;;;;30.15;13.55;;;;;;;;;;4879112;29;20021;-67
2021/11/16 07:16:19;;;;;;;28.30;13.88;;;;;;;;;;4878305;29;20100;-68
2021/11/16 07:18:52;;;;;;;29.02;14.05;;;;;;;;;;4879445;29;20033;-68
2021/11/16 07:21:22;;;;;;;33.78;15.07;;;;;;;;;;4878694;29;20119;-67
2021/11/16 07:24:04;;;;;;;30.35;13.85;;;;;;;;;;4878995;29;20045;-68
2021/11/16 07:26:30;;;;;;;29.58;14.68;;;;;;;;;;4879994;29;20736;-68
2021/11/16 07:28:56;;;;;;;29.85;14.48;;;;;;;;;;4878417;29;20060;-68
2021/11/16 07:31:25;;;;;;;27.65;13.30;;;;;;;;;;4878811;29;20033;-68
2021/11/16 07:33:51;;;;;;;28.88;14.35;;;;;;;;;;4877548;29;20044;-68
2021/11/16 07:36:18;;;;;;;24.65;13.27;;;;;;;;;;4878787;29;20033;-68
2021/11/16 07:38:48;;;;;;;33.10;14.40;;;;;;;;;;4878762;29;20036;-68
2021/11/16 07:41:19;;;;;;;25.75;14.40;;;;;;;;;;4878536;29;20125;-67
2021/11/16 07:43:45;;;;;;;30.47;14.13;;;;;;;;;;4877649;29;20036;-68
2021/11/16 07:46:11;;;;;;;28.02;14.30;;;;;;;;;;4878979;29;20033;-68
2021/11/16 07:48:39;;;;;;;24.08;13.55;;;;;;;;;;4878816;29;20029;-68
2021/11/16 07:51:06;;;;;;;32.35;12.95;;;;;;;;;;4874035;29;20037;-66
2021/11/16 07:53:34;;;;;;;38.30;12.38;;;;;;;;;;4878630;29;20057;-66
2021/11/16 07:56:03;;;;;;;45.70;12.88;;;;;;;;;;4879724;29;20041;-70
2021/11/16 07:58:32;;;;;;;34.60;12.82;;;;;;;;;;4887380;29;20025;-71
2021/11/16 08:01:01;;;;;;;27.00;12.52;;;;;;;;;;4886618;29;20017;-69
2021/11/16 08:03:28;;;;;;;41.03;12.95;;;;;;;;;;4880090;29;20469;-69
2021/11/16 08:06:12;;;;;;;23.02;12.30;;;;;;;;;;4859480;29;20034;-66
2021/11/16 08:11:35;;;;;;;25.77;12.70;;;;;;;;;;4878402;29;20043;-65
2021/11/16 08:14:05;;;;;;;43.28;12.18;;;;;;;;;;4858988;29;20053;-67
2021/11/16 08:16:31;;;;;;;28.90;12.07;;;;;;;;;;4865695;29;20033;-66
2021/11/16 08:19:09;;;;;;;23.30;11.50;;;;;;;;;;4877875;29;20040;-67
2021/11/16 08:21:36;;;;;;;27.77;10.85;;;;;;;;;;4875577;29;20362;-66
2021/11/16 08:24:06;;;;;;;27.42;11.75;;;;;;;;;;4876313;29;20036;-65
2021/11/16 08:26:34;;;;;;;19.27;11.10;;;;;;;;;;4878000;29;20033;-66
2021/11/16 08:29:01;;;;;;;23.10;11.30;;;;;;;;;;4878140;29;20128;-67
2021/11/16 08:31:37;;;;;;;23.90;11.20;;;;;;;;;;4877648;29;20057;-65
2021/11/16 08:34:03;;;;;;;26.33;11.48;;;;;;;;;;4878527;29;20032;-67
2021/11/16 08:36:31;;;;;;;23.77;11.90;;;;;;;;;;4878141;29;20101;-67
2021/11/16 08:38:58;;;;;;;32.67;11.23;;;;;;;;;;4877990;29;20585;-68
2021/11/16 08:41:29;;;;;;;22.95;11.63;;;;;;;;;;4878044;29;20039;-67
2021/11/16 08:44:07;;;;;;;27.27;11.37;;;;;;;;;;4878491;29;20042;-67
2021/11/16 08:46:33;;;;;;;25.80;11.88;;;;;;;;;;4877981;29;20393;-67
2021/11/16 08:48:59;;;;;;;23.38;10.75;;;;;;;;;;4879577;29;20062;-67
2021/11/16 08:51:27;;;;;;;21.92;11.57;;;;;;;;;;4878833;29;20025;-69
2021/11/16 08:53:53;;;;;;;21.20;11.38;;;;;;;;;;4878852;29;20567;-69
2021/11/16 08:56:27;;;;;;;23.58;11.27;;;;;;;;;;4882470;29;20025;-69
2021/11/16 08:58:54;;;;;;;18.98;11.10;;;;;;;;;;4896227;29;20737;-69
2021/11/16 09:01:22;;;;;;;21.60;11.27;;;;;;;;;;4896082;29;20481;-69
2021/11/16 09:03:48;;;;;;;23.08;10.80;;;;;;;;;;4897492;29;20048;-69
2021/11/16 09:06:22;;;;;;;21.02;11.25;;;;;;;;;;4897580;29;20088;-69
2021/11/16 09:09:15;;;;;;;23.27;11.43;;;;;;;;;;4897242;29;20116;-69
2021/11/16 16:45:32;;;;;;;27.05;15.25;;;;;;;;;;4915810;29;20403;-60
2021/11/16 16:47:58;;;;;;;33.03;15.73;;;;;;;;;;4934693;29;20036;-60
2021/11/16 16:50:24;;;;;;;34.10;15.73;;;;;;;;;;4935425;29;20486;-60
2021/11/16 16:52:51;;;;;;;38.85;16.88;;;;;;;;;;4937477;29;20509;-60
2021/11/16 16:55:16;;;;;;;36.20;16.50;;;;;;;;;;4939401;29;20478;-60
2021/11/16 16:57:47;;;;;;;28.63;15.88;;;;;;;;;;4939543;29;20027;-60
2021/11/16 17:00:14;;;;;;;36.38;17.00;;;;;;;;;;4939444;29;20026;-60
2021/11/16 17:02:42;;;;;;;32.10;17.17;;;;;;;;;;4938817;29;20032;-69
2021/11/16 17:05:10;;;;;;;28.75;16.55;;;;;;;;;;4939505;29;20383;-68
2021/11/16 17:07:36;;;;;;;29.52;16.60;;;;;;;;;;4939169;29;20799;-61
2021/11/16 17:10:02;;;;;;;35.58;16.60;;;;;;;;;;4938143;29;20447;-57
2021/11/16 17:12:29;;;;;;;44.35;16.25;;;;;;;;;;4930702;29;20035;-60
2021/11/16 17:14:54;;;;;;;37.75;15.43;;;;;;;;;;4938786;29;20479;-62
2021/11/16 17:17:22;;;;;;;35.42;15.25;;;;;;;;;;4938875;29;20055;-61
2021/11/16 17:19:49;;;;;;;32.05;15.32;;;;;;;;;;4929384;29;20169;-59
2021/11/16 17:22:16;;;;;;;30.35;14.18;;;;;;;;;;4938834;29;20031;-61
2021/11/16 17:24:43;;;;;;;29.92;13.90;;;;;;;;;;4938839;29;20070;-60
2021/11/16 17:27:10;;;;;;;32.28;14.75;;;;;;;;;;4939038;29;20078;-59
2021/11/16 17:29:37;;;;;;;35.10;15.30;;;;;;;;;;4938589;29;20028;-60
2021/11/16 17:32:03;;;;;;;35.00;14.52;;;;;;;;;;4938438;29;20028;-60
2021/11/16 17:34:29;;;;;;;33.70;14.27;;;;;;;;;;4938821;29;20036;-59
2021/11/16 17:36:56;;;;;;;33.83;14.60;;;;;;;;;;4938622;29;20024;-59
2021/11/16 17:39:22;;;;;;;35.90;16.20;;;;;;;;;;4938595;29;20126;-58
2021/11/16 17:41:48;;;;;;;34.33;15.98;;;;;;;;;;4930428;28;20542;-61
2021/11/16 17:44:14;;;;;;;32.47;16.63;;;;;;;;;;4925409;29;20111;-60
2021/11/16 17:46:42;;;;;;;37.60;16.27;;;;;;;;;;4924445;29;20036;-59
2021/11/16 17:49:09;;;;;;;38.50;16.25;;;;;;;;;;4937688;29;20027;-61
2021/11/16 17:51:36;;;;;;;36.72;16.70;;;;;;;;;;4938614;29;20031;-58
2021/11/16 17:54:03;;;;;;;39.08;16.67;;;;;;;;;;4937075;29;20368;-60
2021/11/16 17:56:29;;;;;;;34.70;16.40;;;;;;;;;;4937408;29;20414;-55
2021/11/16 17:58:55;;;;;;;28.00;16.13;;;;;;;;;;4937226;29;20357;-57
2021/11/16 18:01:21;;;;;;;31.70;16.50;;;;;;;;;;4938118;29;20031;-59
2021/11/16 18:03:49;;;;;;;36.35;18.17;;;;;;;;;;4937097;29;20039;-56
2021/11/16 18:07:57;;;;;;;38.45;17.85;;;;;;;;;;4938048;29;20499;-57
2021/11/16 18:09:06;;;;;;;35.30;16.90;;;;;;;;;;4938027;29;20458;-57
2021/11/16 18:11:32;;;;;;;33.08;16.67;;;;;;;;;;4938082;29;20032;-53
2021/11/16 18:13:58;;;;;;;30.95;16.42;;;;;;;;;;4938316;29;20031;-58
2021/11/16 18:16:26;;;;;;;33.80;16.63;;;;;;;;;;4937931;29;20483;-58
2021/11/16 18:18:52;;;;;;;30.52;16.38;;;;;;;;;;4937745;29;20399;-58
2021/11/16 18:21:18;;;;;;;34.22;16.70;;;;;;;;;;4937858;29;20371;-57
2021/11/16 18:23:46;;;;;;;54.55;16.25;;;;;;;;;;4937947;29;20035;-57
2021/11/16 18:26:13;;;;;;;78.07;17.33;;;;;;;;;;4937665;29;20035;-56
2021/11/16 18:28:39;;;;;;;62.58;16.52;;;;;;;;;;4937738;29;20027;-58
2021/11/16 18:31:11;;;;;;;42.63;17.35;;;;;;;;;;4937774;29;20494;-60
2021/11/16 18:33:37;;;;;;;76.30;18.70;;;;;;;;;;4935806;29;20036;-62
2021/11/16 18:36:03;;;;;;;70.15;17.80;;;;;;;;;;4936358;29;20028;-61
2021/11/16 18:38:34;;;;;;;78.43;17.20;;;;;;;;;;4934068;29;20511;-60
2021/11/16 18:41:13;;;;;;;55.28;17.15;;;;;;;;;;4926494;29;20053;-61
2021/11/16 18:44:27;;;;;;;43.20;15.80;;;;;;;;;;4930557;29;20044;-59
2021/11/16 18:46:32;;;;;;;54.40;17.27;;;;;;;;;;4922234;29;20390;-59
2021/11/16 18:49:01;;;;;;;49.75;16.35;;;;;;;;;;4928303;29;20024;-59
2021/11/16 18:51:27;;;;;;;57.00;17.23;;;;;;;;;;4928052;29;20533;-60
2021/11/16 18:53:53;;;;;;;48.38;17.00;;;;;;;;;;4926318;29;20087;-59
2021/11/16 18:56:22;;;;;;;46.42;14.98;;;;;;;;;;4930311;29;20059;-60
2021/11/16 18:58:49;;;;;;;39.75;16.27;;;;;;;;;;4925738;29;20063;-59
2021/11/16 19:01:15;;;;;;;36.92;15.10;;;;;;;;;;4928069;29;20075;-60
2021/11/16 19:03:41;;;;;;;37.10;15.35;;;;;;;;;;4918157;28;20095;-60
2021/11/16 19:06:07;;;;;;;36.60;13.90;;;;;;;;;;4927794;29;20363;-68
2021/11/16 19:08:33;;;;;;;29.75;15.00;;;;;;;;;;4936310;29;20046;-62
2021/11/16 19:10:59;;;;;;;39.38;14.23;;;;;;;;;;4924359;29;20038;-62
2021/11/16 19:13:25;;;;;;;41.80;15.15;;;;;;;;;;4927889;29;20031;-62
2021/11/16 19:15:53;;;;;;;30.73;13.88;;;;;;;;;;4926113;29;20032;-61
2021/11/16 19:18:19;;;;;;;42.83;14.07;;;;;;;;;;4935492;29;20019;-62
2021/11/16 19:20:47;;;;;;;31.40;14.43;;;;;;;;;;4938907;29;20028;-64
2021/11/16 19:23:16;;;;;;;31.70;13.75;;;;;;;;;;4936660;29;20430;-63
2021/11/16 19:25:43;;;;;;;31.85;13.63;;;;;;;;;;4936687;29;20023;-63
2021/11/16 19:30:39;;;;;;;28.05;13.98;;;;;;;;;;4936612;29;20028;-64
2021/11/16 19:33:05;;;;;;;35.50;13.38;;;;;;;;;;4936527;29;20050;-65
2021/11/16 19:35:40;;;;;;;24.02;13.20;;;;;;;;;;4936535;29;20039;-63
2021/11/16 19:38:07;;;;;;;25.08;12.68;;;;;;;;;;4936267;29;20024;-63
2021/11/16 19:40:35;;;;;;;29.63;12.60;;;;;;;;;;4934725;29;20032;-63
2021/11/16 19:43:03;;;;;;;23.27;11.85;;;;;;;;;;4936312;29;20471;-64
2021/11/16 19:45:29;;;;;;;24.75;12.30;;;;;;;;;;4935858;29;20131;-64
2021/11/16 19:47:56;;;;;;;23.70;12.73;;;;;;;;;;4935119;29;20055;-63
2021/11/16 19:50:22;;;;;;;24.70;12.00;;;;;;;;;;4936317;29;20031;-65
2021/11/16 19:52:49;;;;;;;26.73;12.75;;;;;;;;;;4936298;29;20047;-66
2021/11/16 19:55:16;;;;;;;20.98;11.52;;;;;;;;;;4936214;29;20035;-66
2021/11/16 19:57:43;;;;;;;31.67;12.48;;;;;;;;;;4936065;29;20031;-63
2021/11/16 20:00:13;;;;;;;25.75;11.57;;;;;;;;;;4918678;29;20395;-64
2021/11/16 20:02:39;;;;;;;29.75;11.40;;;;;;;;;;4926544;29;20118;-62
2021/11/16 20:05:06;;;;;;;22.50;11.50;;;;;;;;;;4935882;29;20542;-62
2021/11/16 20:07:32;;;;;;;22.83;12.20;;;;;;;;;;4934857;29;20059;-61
2021/11/16 20:10:00;;;;;;;24.60;11.90;;;;;;;;;;4925871;29;20364;-60
2021/11/16 20:12:26;;;;;;;23.02;12.07;;;;;;;;;;4917172;29;20027;-60
2021/11/16 20:14:52;;;;;;;23.40;12.18;;;;;;;;;;4916975;29;20115;-60
2021/11/16 20:17:18;;;;;;;20.48;11.18;;;;;;;;;;4916529;29;20538;-60
2021/11/16 20:19:45;;;;;;;21.35;10.82;;;;;;;;;;4917127;29;20083;-59
2021/11/16 20:22:12;;;;;;;20.45;11.55;;;;;;;;;;4918954;29;20028;-60
2021/11/16 20:24:38;;;;;;;21.77;11.85;;;;;;;;;;4934377;29;20042;-61
2021/11/16 20:27:06;;;;;;;19.33;11.40;;;;;;;;;;4933975;29;20035;-60
2021/11/16 20:29:38;;;;;;;23.67;11.88;;;;;;;;;;4934582;29;20593;-60
2021/11/16 20:32:10;;;;;;;22.90;11.80;;;;;;;;;;4931093;28;20050;-60
2021/11/16 20:34:56;;;;;;;21.92;11.25;;;;;;;;;;4918898;29;20036;-60
2021/11/16 20:37:23;;;;;;;19.60;11.40;;;;;;;;;;4935612;29;20031;-60
2021/11/16 20:40:01;;;;;;;22.75;11.95;;;;;;;;;;4926877;29;20032;-59
2021/11/16 21:01:24;;;;;;;21.80;10.52;;;;;;;;;;4921645;29;20035;-60
2021/11/16 21:03:52;;;;;;;22.10;11.18;;;;;;;;;;4924008;29;20135;-60
2021/11/16 21:06:18;;;;;;;24.48;10.98;;;;;;;;;;4926359;29;20027;-61
2021/11/16 21:08:44;;;;;;;19.98;10.43;;;;;;;;;;4930390;29;20028;-62
2021/11/16 21:11:11;;;;;;;18.45;10.35;;;;;;;;;;4924314;29;20032;-60
2021/11/16 21:13:37;;;;;;;28.75;10.32;;;;;;;;;;4922721;29;20157;-63
2021/11/16 21:16:03;;;;;;;22.00;11.15;;;;;;;;;;4918003;29;20059;-62
2021/11/16 21:18:29;;;;;;;26.25;11.13;;;;;;;;;;4916336;29;20546;-60
2021/11/16 21:20:55;;;;;;;19.67;10.70;;;;;;;;;;4916266;29;20107;-60
2021/11/16 21:23:21;;;;;;;20.02;10.52;;;;;;;;;;4916472;29;20127;-60
2021/11/16 21:25:50;;;;;;;24.10;10.60;;;;;;;;;;4916071;29;20024;-60
2021/11/16 21:28:17;;;;;;;23.52;10.32;;;;;;;;;;4916378;29;20031;-61
2021/11/16 21:30:48;;;;;;;18.67;9.90;;;;;;;;;;4916107;29;20024;-60
2021/11/16 21:33:15;;;;;;;20.58;10.38;;;;;;;;;;4921056;29;20099;-60
2021/11/16 21:35:41;;;;;;;23.27;10.45;;;;;;;;;;4935051;29;20046;-61
2021/11/16 21:38:07;;;;;;;20.92;10.60;;;;;;;;;;4936303;29;20370;-61
2021/11/16 21:40:33;;;;;;;19.55;11.23;;;;;;;;;;4939005;29;20549;-60
2021/11/16 21:43:00;;;;;;;19.88;10.32;;;;;;;;;;4937241;29;20680;-63
2021/11/16 21:45:27;;;;;;;24.55;10.48;;;;;;;;;;4938353;29;20044;-62
2021/11/16 21:47:53;;;;;;;20.27;10.85;;;;;;;;;;4938532;29;20038;-60
2021/11/16 21:50:19;;;;;;;22.23;11.15;;;;;;;;;;4938444;29;20042;-64
2021/11/16 21:52:45;;;;;;;24.13;10.88;;;;;;;;;;4938146;29;20023;-60
2021/11/16 21:55:11;;;;;;;20.58;11.82;;;;;;;;;;4938129;29;20028;-58
2021/11/16 21:57:37;;;;;;;21.35;11.60;;;;;;;;;;4938269;29;20036;-63
2021/11/16 22:00:05;;;;;;;21.48;11.15;;;;;;;;;;4938491;29;20035;-57
2021/11/16 22:02:31;;;;;;;20.27;11.77;;;;;;;;;;4938209;29;20526;-55
2021/11/16 22:05:04;;;;;;;22.27;11.65;;;;;;;;;;4938162;29;20032;-56
2021/11/16 22:10:08;;;;;;;20.40;12.00;;;;;;;;;;4938115;29;20024;-57
2021/11/16 22:12:35;;;;;;;19.52;11.30;;;;;;;;;;4938500;29;20035;-55
2021/11/16 22:15:04;;;;;;;24.73;13.50;;;;;;;;;;4936586;29;20035;-56
2021/11/16 22:17:31;;;;;;;23.38;12.73;;;;;;;;;;4937956;29;20050;-57
2021/11/16 22:19:57;;;;;;;20.42;13.10;;;;;;;;;;4937991;29;20023;-63
2021/11/16 22:22:23;;;;;;;21.75;12.73;;;;;;;;;;4937861;29;20476;-63
2021/11/16 22:24:49;;;;;;;26.50;13.43;;;;;;;;;;4937745;29;20046;-56
2021/11/16 22:27:15;;;;;;;22.63;12.77;;;;;;;;;;4936551;29;20124;-57
2021/11/16 22:29:47;;;;;;;22.88;13.57;;;;;;;;;;4937727;29;20477;-56